sensor_id;sensor_type;location;lat;lon;timestamp;pressure;altitude;pressure_sealevel;temperature;humidity
39823;BME280;25499;53.958;10.970;2022-10-17T05:44:21;101812.34;;;12.13;99.60
39823;BME280;25499;53.958;10.970;2022-10-17T05:46:55;101802.84;;;12.21;98.77
39823;BME280;25499;53.958;10.970;2022-10-17T05:49:49;101809.84;;;12.24;98.31
39823;BME280;25499;53.958;10.970;2022-10-17T05:52:27;101808.16;;;12.37;97.49
39823;BME280;25499;53.958;10.970;2022-10-17T05:55:03;101811.66;;;12.39;97.05
39823;BME280;25499;53.958;10.970;2022-10-17T06:13:22;101812.50;;;12.33;96.27
39823;BME280;25499;53.958;10.970;2022-10-17T06:15:48;101809.94;;;12.38;96.56
39823;BME280;25499;53.958;10.970;2022-10-17T06:18:15;101813.41;;;12.38;96.13
39823;BME280;25499;53.958;10.970;2022-10-17T06:20:41;101809.09;;;12.43;95.77
39823;BME280;25499;53.958;10.970;2022-10-17T06:23:06;101808.25;;;12.46;95.70
39823;BME280;25499;53.958;10.970;2022-10-17T06:25:32;101814.34;;;12.54;95.56
39823;BME280;25499;53.958;10.970;2022-10-17T06:27:58;101812.66;;;12.62;95.21
39823;BME280;25499;53.958;10.970;2022-10-17T06:30:24;101807.50;;;12.72;94.80
39823;BME280;25499;53.958;10.970;2022-10-17T06:32:51;101811.03;;;12.84;94.18
39823;BME280;25499;53.958;10.970;2022-10-17T06:35:18;101810.16;;;12.75;94.27
39823;BME280;25499;53.958;10.970;2022-10-17T06:37:44;101815.28;;;12.64;93.87
39823;BME280;25499;53.958;10.970;2022-10-17T06:40:13;101815.41;;;12.84;94.30
39823;BME280;25499;53.958;10.970;2022-10-17T06:42:40;101802.38;;;12.96;93.58
39823;BME280;25499;53.958;10.970;2022-10-17T06:45:07;101806.75;;;12.97;93.64
39823;BME280;25499;53.958;10.970;2022-10-17T06:47:33;101812.88;;;13.05;93.54
39823;BME280;25499;53.958;10.970;2022-10-17T06:49:59;101809.38;;;13.05;93.13
39823;BME280;25499;53.958;10.970;2022-10-17T06:52:24;101809.41;;;13.11;92.86
39823;BME280;25499;53.958;10.970;2022-10-17T06:54:50;101820.84;;;13.33;92.61
39823;BME280;25499;53.958;10.970;2022-10-17T06:57:16;101823.47;;;13.39;92.32
39823;BME280;25499;53.958;10.970;2022-10-17T06:59:42;101821.75;;;13.41;91.97
39823;BME280;25499;53.958;10.970;2022-10-17T07:02:09;101819.13;;;13.45;91.45
39823;BME280;25499;53.958;10.970;2022-10-17T07:04:35;101820.88;;;13.52;91.31
39823;BME280;25499;53.958;10.970;2022-10-17T07:10:15;101829.63;;;13.69;90.99
39823;BME280;25499;53.958;10.970;2022-10-17T07:12:46;101834.00;;;13.70;90.76
39823;BME280;25499;53.958;10.970;2022-10-17T07:15:38;101834.88;;;13.63;91.63
39823;BME280;25499;53.958;10.970;2022-10-17T07:18:05;101833.13;;;13.73;91.44
39823;BME280;25499;53.958;10.970;2022-10-17T07:20:34;101819.19;;;13.82;91.39
39823;BME280;25499;53.958;10.970;2022-10-17T07:25:36;101821.81;;;14.09;91.01
39823;BME280;25499;53.958;10.970;2022-10-17T07:28:15;101826.16;;;14.18;91.51
39823;BME280;25499;53.958;10.970;2022-10-17T07:33:34;101814.78;;;14.42;91.06
39823;BME280;25499;53.958;10.970;2022-10-17T07:36:04;101806.06;;;14.28;90.81
39823;BME280;25499;53.958;10.970;2022-10-17T07:38:58;101810.44;;;14.38;90.82
39823;BME280;25499;53.958;10.970;2022-10-17T07:41:33;101808.63;;;14.69;90.62
39823;BME280;25499;53.958;10.970;2022-10-17T07:44:03;101816.47;;;14.80;90.14
39823;BME280;25499;53.958;10.970;2022-10-17T07:46:37;101819.09;;;14.79;89.71
39823;BME280;25499;53.958;10.970;2022-10-17T07:49:12;101827.75;;;14.95;89.97
39823;BME280;25499;53.958;10.970;2022-10-17T07:51:39;101825.13;;;14.95;90.00
39823;BME280;25499;53.958;10.970;2022-10-17T07:54:21;101838.16;;;15.15;90.05
39823;BME280;25499;53.958;10.970;2022-10-17T07:57:07;101847.72;;;15.29;89.90
39823;BME280;25499;53.958;10.970;2022-10-17T07:59:40;101847.75;;;15.25;89.04
39823;BME280;25499;53.958;10.970;2022-10-17T08:02:28;101842.41;;;15.40;89.75
39823;BME280;25499;53.958;10.970;2022-10-17T08:05:11;101838.00;;;15.44;89.33
39823;BME280;25499;53.958;10.970;2022-10-17T08:11:12;101824.00;;;15.48;89.54
39823;BME280;25499;53.958;10.970;2022-10-17T08:13:52;101817.84;;;15.51;90.31
39823;BME280;25499;53.958;10.970;2022-10-17T08:16:39;101822.88;;;15.86;89.96
39823;BME280;25499;53.958;10.970;2022-10-17T08:19:27;101815.09;;;15.71;89.78
39823;BME280;25499;53.958;10.970;2022-10-17T08:22:19;101818.28;;;16.13;90.14
39823;BME280;25499;53.958;10.970;2022-10-17T08:24:54;101801.44;;;16.32;88.66
39823;BME280;25499;53.958;10.970;2022-10-17T08:27:25;101810.75;;;16.64;88.81
39823;BME280;25499;53.958;10.970;2022-10-17T08:30:01;101822.91;;;16.74;87.23
39823;BME280;25499;53.958;10.970;2022-10-17T08:32:39;101815.34;;;16.47;87.10
39823;BME280;25499;53.958;10.970;2022-10-17T08:35:17;101811.88;;;16.45;87.84
39823;BME280;25499;53.958;10.970;2022-10-17T08:37:48;101814.72;;;17.02;87.66
39823;BME280;25499;53.958;10.970;2022-10-17T08:40:34;101811.81;;;17.22;85.71
39823;BME280;25499;53.958;10.970;2022-10-17T08:43:18;101804.94;;;17.12;85.11
39823;BME280;25499;53.958;10.970;2022-10-17T08:46:11;101810.75;;;16.64;86.14
39823;BME280;25499;53.958;10.970;2022-10-17T08:48:41;101802.28;;;16.37;88.09
39823;BME280;25499;53.958;10.970;2022-10-17T08:51:23;101788.44;;;16.21;89.72
39823;BME280;25499;53.958;10.970;2022-10-17T08:54:12;101803.41;;;16.13;90.45
39823;BME280;25499;53.958;10.970;2022-10-17T08:56:45;101794.81;;;15.94;91.47
39823;BME280;25499;53.958;10.970;2022-10-17T08:59:29;101798.31;;;15.93;92.24
39823;BME280;25499;53.958;10.970;2022-10-17T09:20:46;101781.25;;;17.13;88.09
39823;BME280;25499;53.958;10.970;2022-10-17T09:23:35;101784.56;;;17.84;87.35
39823;BME280;25499;53.958;10.970;2022-10-17T09:26:26;101780.19;;;17.83;86.29
39823;BME280;25499;53.958;10.970;2022-10-17T09:28:59;101780.28;;;17.77;84.85
39823;BME280;25499;53.958;10.970;2022-10-17T09:31:31;101766.53;;;17.59;85.66
39823;BME280;25499;53.958;10.970;2022-10-17T09:34:12;101775.94;;;18.25;84.18
39823;BME280;25499;53.958;10.970;2022-10-17T09:36:42;101761.81;;;18.30;83.20
39823;BME280;25499;53.958;10.970;2022-10-17T09:39:25;101756.97;;;18.06;83.64
39823;BME280;25499;53.958;10.970;2022-10-17T09:42:01;101762.53;;;17.91;84.66
39823;BME280;25499;53.958;10.970;2022-10-17T09:44:50;101771.34;;;17.88;84.88
39823;BME280;25499;53.958;10.970;2022-10-17T09:48:09;101764.31;;;17.89;85.42
39823;BME280;25499;53.958;10.970;2022-10-17T09:50:32;101774.16;;;17.76;86.26
39823;BME280;25499;53.958;10.970;2022-10-17T09:53:11;101776.88;;;17.70;86.38
39823;BME280;25499;53.958;10.970;2022-10-17T09:55:52;101780.50;;;17.63;86.89
39823;BME280;25499;53.958;10.970;2022-10-17T10:07:11;101781.78;;;17.95;86.61
39823;BME280;25499;53.958;10.970;2022-10-17T10:09:37;101791.22;;;18.53;84.63
39823;BME280;25499;53.958;10.970;2022-10-17T10:12:08;101788.78;;;18.91;82.32
39823;BME280;25499;53.958;10.970;2022-10-17T10:14:40;101792.50;;;19.96;79.31
39823;BME280;25499;53.958;10.970;2022-10-17T10:17:26;101786.44;;;19.92;77.47
39823;BME280;25499;53.958;10.970;2022-10-17T10:19:52;101787.63;;;20.46;75.79
39823;BME280;25499;53.958;10.970;2022-10-17T10:22:19;101781.31;;;20.19;76.33
39823;BME280;25499;53.958;10.970;2022-10-17T10:25:15;101778.34;;;19.61;78.38
39823;BME280;25499;53.958;10.970;2022-10-17T10:27:45;101780.53;;;19.06;80.50
39823;BME280;25499;53.958;10.970;2022-10-17T10:30:20;101782.56;;;19.32;80.88
39823;BME280;25499;53.958;10.970;2022-10-17T10:32:47;101774.44;;;19.79;77.90
39823;BME280;25499;53.958;10.970;2022-10-17T10:35:33;101770.47;;;19.22;79.83
39823;BME280;25499;53.958;10.970;2022-10-17T10:38:01;101777.59;;;18.76;81.96
39823;BME280;25499;53.958;10.970;2022-10-17T10:40:47;101778.75;;;18.63;83.21
39823;BME280;25499;53.958;10.970;2022-10-17T10:45:58;101784.63;;;18.77;83.22
39823;BME280;25499;53.958;10.970;2022-10-17T10:48:32;101784.94;;;18.62;82.60
39823;BME280;25499;53.958;10.970;2022-10-17T10:51:05;101792.13;;;18.54;83.84
39823;BME280;25499;53.958;10.970;2022-10-17T10:56:20;101809.25;;;18.76;83.95
39823;BME280;25499;53.958;10.970;2022-10-17T11:06:25;101781.00;;;19.61;79.54
39823;BME280;25499;53.958;10.970;2022-10-17T11:09:10;101784.47;;;19.63;79.54
39823;BME280;25499;53.958;10.970;2022-10-17T11:11:47;101776.06;;;19.47;79.89
39823;BME280;25499;53.958;10.970;2022-10-17T11:14:22;101786.22;;;19.64;79.71
39823;BME280;25499;53.958;10.970;2022-10-17T11:17:02;101788.47;;;20.16;77.96
39823;BME280;25499;53.958;10.970;2022-10-17T11:22:22;101766.97;;;21.20;73.62
39823;BME280;25499;53.958;10.970;2022-10-17T11:25:14;101765.59;;;21.90;72.42
39823;BME280;25499;53.958;10.970;2022-10-17T11:27:41;101744.44;;;21.89;70.31
39823;BME280;25499;53.958;10.970;2022-10-17T11:30:11;101745.47;;;21.30;72.60
39823;BME280;25499;53.958;10.970;2022-10-17T11:32:58;101756.56;;;20.22;76.04
39823;BME280;25499;53.958;10.970;2022-10-17T11:35:39;101771.38;;;19.59;79.60
39823;BME280;25499;53.958;10.970;2022-10-17T11:38:17;101773.78;;;19.32;81.46
39823;BME280;25499;53.958;10.970;2022-10-17T11:40:49;101765.56;;;19.05;82.57
39823;BME280;25499;53.958;10.970;2022-10-17T11:46:04;101770.47;;;18.80;84.20
39823;BME280;25499;53.958;10.970;2022-10-17T11:48:36;101769.88;;;18.67;84.88
39823;BME280;25499;53.958;10.970;2022-10-17T11:51:09;101768.97;;;18.68;85.07
39823;BME280;25499;53.958;10.970;2022-10-17T11:53:58;101764.63;;;18.66;85.32
39823;BME280;25499;53.958;10.970;2022-10-17T12:01:53;101748.94;;;18.58;86.08
39823;BME280;25499;53.958;10.970;2022-10-17T12:04:57;101756.66;;;18.69;86.07
39823;BME280;25499;53.958;10.970;2022-10-17T12:07:50;101760.91;;;18.76;86.28
39823;BME280;25499;53.958;10.970;2022-10-17T12:10:33;101761.72;;;18.78;86.10
39823;BME280;25499;53.958;10.970;2022-10-17T12:15:52;101764.38;;;18.78;85.64
39823;BME280;25499;53.958;10.970;2022-10-17T12:18:17;101763.44;;;18.80;86.35
39823;BME280;25499;53.958;10.970;2022-10-17T12:20:57;101757.97;;;18.91;85.62
39823;BME280;25499;53.958;10.970;2022-10-17T12:23:26;101760.78;;;19.23;83.67
39823;BME280;25499;53.958;10.970;2022-10-17T12:25:54;101753.53;;;18.92;85.38
39823;BME280;25499;53.958;10.970;2022-10-17T12:28:27;101752.03;;;18.78;86.39
39823;BME280;25499;53.958;10.970;2022-10-17T12:33:51;101750.50;;;18.68;86.95
39823;BME280;25499;53.958;10.970;2022-10-17T12:38:44;101751.47;;;18.64;87.33
39823;BME280;25499;53.958;10.970;2022-10-17T12:41:09;101733.09;;;18.59;87.66
39823;BME280;25499;53.958;10.970;2022-10-17T12:43:43;101741.81;;;18.63;87.65
39823;BME280;25499;53.958;10.970;2022-10-17T12:46:08;101737.53;;;18.57;88.05
39823;BME280;25499;53.958;10.970;2022-10-17T12:51:09;101733.19;;;18.55;88.21
39823;BME280;25499;53.958;10.970;2022-10-17T12:53:57;101723.59;;;18.51;88.51
39823;BME280;25499;53.958;10.970;2022-10-17T12:56:38;101739.41;;;18.52;88.64
39823;BME280;25499;53.958;10.970;2022-10-17T12:59:13;101759.66;;;18.50;88.50
39823;BME280;25499;53.958;10.970;2022-10-17T13:01:43;101785.41;;;18.36;89.90
39823;BME280;25499;53.958;10.970;2022-10-17T13:04:09;101786.19;;;18.42;89.62
39823;BME280;25499;53.958;10.970;2022-10-17T13:06:38;101779.84;;;18.51;89.69
39823;BME280;25499;53.958;10.970;2022-10-17T13:09:17;101775.47;;;18.52;89.97
39823;BME280;25499;53.958;10.970;2022-10-17T13:11:45;101780.69;;;18.53;90.36
39823;BME280;25499;53.958;10.970;2022-10-17T13:14:14;101780.66;;;18.55;89.93
39823;BME280;25499;53.958;10.970;2022-10-17T13:16:53;101783.19;;;18.61;89.22
39823;BME280;25499;53.958;10.970;2022-10-17T13:19:21;101785.94;;;18.53;90.05
39823;BME280;25499;53.958;10.970;2022-10-17T13:21:52;101796.44;;;18.56;90.00
39823;BME280;25499;53.958;10.970;2022-10-17T13:24:21;101810.72;;;18.46;90.56
39823;BME280;25499;53.958;10.970;2022-10-17T13:26:47;101802.47;;;18.63;90.48
39823;BME280;25499;53.958;10.970;2022-10-17T13:29:14;101805.50;;;18.43;90.94
39823;BME280;25499;53.958;10.970;2022-10-17T13:31:41;101795.09;;;18.37;91.29
39823;BME280;25499;53.958;10.970;2022-10-17T13:34:16;101788.97;;;18.35;91.27
39823;BME280;25499;53.958;10.970;2022-10-17T13:36:44;101802.91;;;18.41;92.15
39823;BME280;25499;53.958;10.970;2022-10-17T13:39:13;101808.13;;;18.43;91.78
39823;BME280;25499;53.958;10.970;2022-10-17T13:41:40;101816.94;;;18.43;91.63
39823;BME280;25499;53.958;10.970;2022-10-17T13:44:15;101816.22;;;18.34;91.56
39823;BME280;25499;53.958;10.970;2022-10-17T13:46:42;101826.00;;;18.27;91.84
39823;BME280;25499;53.958;10.970;2022-10-17T13:49:22;101832.03;;;18.35;92.08
39823;BME280;25499;53.958;10.970;2022-10-17T13:51:50;101840.22;;;18.18;92.49
39823;BME280;25499;53.958;10.970;2022-10-17T13:56:58;101850.81;;;18.17;92.58
39823;BME280;25499;53.958;10.970;2022-10-17T13:59:28;101845.41;;;18.24;92.46
39823;BME280;25499;53.958;10.970;2022-10-17T14:01:54;101843.75;;;18.17;92.46
39823;BME280;25499;53.958;10.970;2022-10-17T14:04:21;101852.41;;;18.25;93.13
39823;BME280;25499;53.958;10.970;2022-10-17T14:06:46;101869.44;;;18.06;93.56
39823;BME280;25499;53.958;10.970;2022-10-17T14:09:23;101907.22;;;18.05;95.24
39823;BME280;25499;53.958;10.970;2022-10-17T14:12:17;101940.75;;;17.95;97.50
39823;BME280;25499;53.958;10.970;2022-10-17T14:14:48;101838.41;;;17.66;100.00
39823;BME280;25499;53.958;10.970;2022-10-17T14:17:27;101813.91;;;17.61;100.00
39823;BME280;25499;53.958;10.970;2022-10-17T14:19:56;101807.22;;;17.40;100.00
39823;BME280;25499;53.958;10.970;2022-10-17T14:24:49;101826.50;;;17.40;100.00
39823;BME280;25499;53.958;10.970;2022-10-17T14:27:34;101847.59;;;17.37;100.00
39823;BME280;25499;53.958;10.970;2022-10-17T14:32:54;101865.28;;;17.26;100.00
39823;BME280;25499;53.958;10.970;2022-10-17T14:35:21;101869.84;;;17.13;100.00
39823;BME280;25499;53.958;10.970;2022-10-17T14:37:48;101874.34;;;17.05;100.00
39823;BME280;25499;53.958;10.970;2022-10-17T14:40:20;101864.59;;;17.13;100.00
39823;BME280;25499;53.958;10.970;2022-10-17T14:42:51;101869.97;;;17.02;100.00
39823;BME280;25499;53.958;10.970;2022-10-17T14:45:39;101899.03;;;16.93;100.00
39823;BME280;25499;53.958;10.970;2022-10-17T14:48:14;101886.75;;;16.92;100.00
39823;BME280;25499;53.958;10.970;2022-10-17T14:53:32;101852.63;;;16.83;100.00
39823;BME280;25499;53.958;10.970;2022-10-17T14:56:00;101848.16;;;16.94;100.00
39823;BME280;25499;53.958;10.970;2022-10-17T14:58:28;101835.97;;;16.84;100.00
39823;BME280;25499;53.958;10.970;2022-10-17T15:00:54;101827.22;;;16.85;100.00
39823;BME280;25499;53.958;10.970;2022-10-17T15:03:20;101814.16;;;16.74;100.00
39823;BME280;25499;53.958;10.970;2022-10-17T15:05:46;101806.13;;;16.88;100.00
39823;BME280;25499;53.958;10.970;2022-10-17T15:08:14;101804.41;;;16.84;100.00
39823;BME280;25499;53.958;10.970;2022-10-17T15:10:40;101822.00;;;16.78;100.00
39823;BME280;25499;53.958;10.970;2022-10-17T15:13:09;101823.72;;;16.81;100.00
39823;BME280;25499;53.958;10.970;2022-10-17T15:15:36;101832.63;;;16.68;100.00
39823;BME280;25499;53.958;10.970;2022-10-17T15:18:02;101843.06;;;16.78;100.00
39823;BME280;25499;53.958;10.970;2022-10-17T15:20:28;101836.91;;;16.78;100.00
39823;BME280;25499;53.958;10.970;2022-10-17T15:22:56;101850.22;;;16.63;100.00
39823;BME280;25499;53.958;10.970;2022-10-17T15:25:23;101858.94;;;16.65;100.00
39823;BME280;25499;53.958;10.970;2022-10-17T15:27:50;101865.00;;;16.74;100.00
39823;BME280;25499;53.958;10.970;2022-10-17T15:30:22;101876.47;;;16.67;100.00
39823;BME280;25499;53.958;10.970;2022-10-17T15:32:49;101887.00;;;16.67;100.00
39823;BME280;25499;53.958;10.970;2022-10-17T15:35:15;101899.19;;;16.73;100.00
39823;BME280;25499;53.958;10.970;2022-10-17T15:37:40;101906.25;;;16.69;100.00
39823;BME280;25499;53.958;10.970;2022-10-17T15:40:12;101909.75;;;16.70;100.00
39823;BME280;25499;53.958;10.970;2022-10-17T15:42:38;101910.69;;;16.64;100.00
39823;BME280;25499;53.958;10.970;2022-10-17T15:45:04;101915.94;;;16.64;100.00
39823;BME280;25499;53.958;10.970;2022-10-17T15:47:30;101913.34;;;16.61;100.00
39823;BME280;25499;53.958;10.970;2022-10-17T15:50:02;101916.88;;;16.58;100.00
39823;BME280;25499;53.958;10.970;2022-10-17T15:52:28;101924.75;;;16.62;100.00
39823;BME280;25499;53.958;10.970;2022-10-17T15:54:53;101923.00;;;16.59;100.00
39823;BME280;25499;53.958;10.970;2022-10-17T15:57:25;101937.00;;;16.61;100.00
39823;BME280;25499;53.958;10.970;2022-10-17T15:59:51;101944.03;;;16.57;100.00
39823;BME280;25499;53.958;10.970;2022-10-17T16:04:59;101937.91;;;16.60;100.00
39823;BME280;25499;53.958;10.970;2022-10-17T16:07:24;101948.44;;;16.57;100.00
39823;BME280;25499;53.958;10.970;2022-10-17T16:09:50;101945.81;;;16.57;100.00
39823;BME280;25499;53.958;10.970;2022-10-17T16:12:18;101953.69;;;16.57;100.00
39823;BME280;25499;53.958;10.970;2022-10-17T16:14:45;101959.03;;;16.48;100.00
39823;BME280;25499;53.958;10.970;2022-10-17T16:17:14;101958.13;;;16.50;100.00
39823;BME280;25499;53.958;10.970;2022-10-17T16:19:40;101966.00;;;16.52;100.00
39823;BME280;25499;53.958;10.970;2022-10-17T16:22:16;101957.28;;;16.50;100.00
39823;BME280;25499;53.958;10.970;2022-10-17T16:24:43;101964.25;;;16.54;100.00
39823;BME280;25499;53.958;10.970;2022-10-17T16:27:08;101969.53;;;16.51;100.00
39823;BME280;25499;53.958;10.970;2022-10-17T16:29:34;101969.53;;;16.48;100.00
39823;BME280;25499;53.958;10.970;2022-10-17T16:31:59;101970.47;;;16.44;100.00
39823;BME280;25499;53.958;10.970;2022-10-17T16:34:24;101972.22;;;16.45;100.00
39823;BME280;25499;53.958;10.970;2022-10-17T16:36:50;101973.06;;;16.47;100.00
39823;BME280;25499;53.958;10.970;2022-10-17T16:39:15;101967.78;;;16.50;100.00
39823;BME280;25499;53.958;10.970;2022-10-17T16:41:40;101980.13;;;16.41;100.00
39823;BME280;25499;53.958;10.970;2022-10-17T16:44:09;101977.47;;;16.45;100.00
39823;BME280;25499;53.958;10.970;2022-10-17T16:46:36;101987.09;;;16.46;100.00
39823;BME280;25499;53.958;10.970;2022-10-17T16:49:03;101984.47;;;16.44;100.00
39823;BME280;25499;53.958;10.970;2022-10-17T16:51:28;101984.47;;;16.41;100.00
39823;BME280;25499;53.958;10.970;2022-10-17T16:53:55;101994.16;;;16.39;100.00
39823;BME280;25499;53.958;10.970;2022-10-17T16:56:24;101989.78;;;16.39;100.00
39823;BME280;25499;53.958;10.970;2022-10-17T16:58:54;101984.56;;;16.33;100.00
39823;BME280;25499;53.958;10.970;2022-10-17T17:01:21;102006.41;;;16.38;100.00
39823;BME280;25499;53.958;10.970;2022-10-17T17:03:48;101999.44;;;16.34;100.00
39823;BME280;25499;53.958;10.970;2022-10-17T17:06:19;101995.91;;;16.38;100.00
39823;BME280;25499;53.958;10.970;2022-10-17T17:08:45;101999.44;;;16.34;100.00
39823;BME280;25499;53.958;10.970;2022-10-17T17:11:13;102002.91;;;16.39;100.00
39823;BME280;25499;53.958;10.970;2022-10-17T17:13:39;101999.47;;;16.31;100.00
39823;BME280;25499;53.958;10.970;2022-10-17T17:16:14;101995.09;;;16.27;100.00
39823;BME280;25499;53.958;10.970;2022-10-17T17:18:40;101989.03;;;16.19;100.00
39823;BME280;25499;53.958;10.970;2022-10-17T17:21:07;101991.63;;;16.22;100.00
39823;BME280;25499;53.958;10.970;2022-10-17T17:23:35;101997.72;;;16.26;100.00
39823;BME280;25499;53.958;10.970;2022-10-17T17:26:04;101998.63;;;16.25;100.00
39823;BME280;25499;53.958;10.970;2022-10-17T17:28:30;102009.16;;;16.21;100.00
39823;BME280;25499;53.958;10.970;2022-10-17T17:30:56;102008.34;;;16.12;100.00
39823;BME280;25499;53.958;10.970;2022-10-17T17:33:22;102009.25;;;16.09;100.00
39823;BME280;25499;53.958;10.970;2022-10-17T17:35:59;102013.56;;;16.18;100.00
39823;BME280;25499;53.958;10.970;2022-10-17T17:38:26;102013.56;;;16.18;100.00
39823;BME280;25499;53.958;10.970;2022-10-17T17:40:52;102017.06;;;16.20;100.00
39823;BME280;25499;53.958;10.970;2022-10-17T17:43:18;102026.72;;;16.18;100.00
39823;BME280;25499;53.958;10.970;2022-10-17T17:45:43;102018.81;;;16.18;100.00
39823;BME280;25499;53.958;10.970;2022-10-17T17:48:08;102024.06;;;16.19;100.00
39823;BME280;25499;53.958;10.970;2022-10-17T17:50:38;102021.47;;;16.10;100.00
39823;BME280;25499;53.958;10.970;2022-10-17T17:53:04;102028.50;;;16.10;100.00
39823;BME280;25499;53.958;10.970;2022-10-17T17:55:31;102031.13;;;16.07;100.00
39823;BME280;25499;53.958;10.970;2022-10-17T17:57:56;102034.66;;;16.04;100.00
39823;BME280;25499;53.958;10.970;2022-10-17T18:00:22;102032.00;;;16.09;100.00
39823;BME280;25499;53.958;10.970;2022-10-17T18:02:49;102028.50;;;16.08;100.00
39823;BME280;25499;53.958;10.970;2022-10-17T18:05:14;102036.38;;;16.08;100.00
39823;BME280;25499;53.958;10.970;2022-10-17T18:07:40;102032.91;;;16.08;100.00
39823;BME280;25499;53.958;10.970;2022-10-17T18:10:06;102035.53;;;16.04;100.00
39823;BME280;25499;53.958;10.970;2022-10-17T18:12:32;102036.44;;;16.00;100.00
39823;BME280;25499;53.958;10.970;2022-10-17T18:14:59;102041.63;;;16.10;100.00
39823;BME280;25499;53.958;10.970;2022-10-17T18:17:25;102040.78;;;16.04;100.00
39823;BME280;25499;53.958;10.970;2022-10-17T18:19:50;102046.97;;;15.94;100.00
39823;BME280;25499;53.958;10.970;2022-10-17T18:22:15;102053.94;;;15.98;100.00
39823;BME280;25499;53.958;10.970;2022-10-17T18:24:41;102052.16;;;16.07;100.00
39823;BME280;25499;53.958;10.970;2022-10-17T18:27:06;102053.94;;;16.01;100.00
39823;BME280;25499;53.958;10.970;2022-10-17T18:29:32;102047.75;;;16.07;100.00
39823;BME280;25499;53.958;10.970;2022-10-17T18:31:58;102058.25;;;16.10;100.00
39823;BME280;25499;53.958;10.970;2022-10-17T18:34:24;102067.06;;;16.06;100.00
39823;BME280;25499;53.958;10.970;2022-10-17T18:36:49;102070.56;;;16.05;100.00
39823;BME280;25499;53.958;10.970;2022-10-17T18:39:17;102081.97;;;16.04;100.00
39823;BME280;25499;53.958;10.970;2022-10-17T18:41:42;102081.03;;;16.11;100.00
39823;BME280;25499;53.958;10.970;2022-10-17T18:44:09;102081.91;;;16.12;100.00
39823;BME280;25499;53.958;10.970;2022-10-17T18:46:37;102087.16;;;16.15;100.00
39823;BME280;25499;53.958;10.970;2022-10-17T18:49:13;102088.06;;;16.09;100.00
39823;BME280;25499;53.958;10.970;2022-10-17T18:51:39;102088.91;;;16.13;100.00
39823;BME280;25499;53.958;10.970;2022-10-17T18:54:10;102087.16;;;16.09;100.00
39823;BME280;25499;53.958;10.970;2022-10-17T18:56:36;102093.31;;;16.06;100.00
39823;BME280;25499;53.958;10.970;2022-10-17T18:59:02;102095.91;;;16.15;100.00
39823;BME280;25499;53.958;10.970;2022-10-17T19:01:27;102096.81;;;16.07;100.00
39823;BME280;25499;53.958;10.970;2022-10-17T19:03:55;102097.69;;;16.09;100.00
39823;BME280;25499;53.958;10.970;2022-10-17T19:06:24;102095.94;;;16.11;100.00
39823;BME280;25499;53.958;10.970;2022-10-17T19:08:50;102102.06;;;16.08;100.00
39823;BME280;25499;53.958;10.970;2022-10-17T19:11:18;102101.22;;;16.04;100.00
39823;BME280;25499;53.958;10.970;2022-10-17T19:13:45;102104.69;;;16.13;100.00
39823;BME280;25499;53.958;10.970;2022-10-17T19:16:14;102102.97;;;16.02;100.00
39823;BME280;25499;53.958;10.970;2022-10-17T19:18:40;102104.75;;;15.97;100.00
39823;BME280;25499;53.958;10.970;2022-10-17T19:21:08;102113.44;;;16.09;100.00
39823;BME280;25499;53.958;10.970;2022-10-17T19:23:34;102105.59;;;16.06;100.00
39823;BME280;25499;53.958;10.970;2022-10-17T19:26:08;102105.63;;;15.99;100.00
39823;BME280;25499;53.958;10.970;2022-10-17T19:28:35;102105.63;;;15.98;100.00
39823;BME280;25499;53.958;10.970;2022-10-17T19:31:01;102102.97;;;16.01;100.00
39823;BME280;25499;53.958;10.970;2022-10-17T19:33:27;102109.97;;;16.02;100.00
39823;BME280;25499;53.958;10.970;2022-10-17T19:35:57;102104.75;;;16.00;100.00
39823;BME280;25499;53.958;10.970;2022-10-17T19:38:23;102110.88;;;16.02;100.00
39823;BME280;25499;53.958;10.970;2022-10-17T19:40:48;102110.00;;;15.97;100.00
39823;BME280;25499;53.958;10.970;2022-10-17T19:43:13;102107.38;;;15.99;100.00
39823;BME280;25499;53.958;10.970;2022-10-17T19:45:39;102110.00;;;15.94;100.00
39823;BME280;25499;53.958;10.970;2022-10-17T19:48:04;102108.25;;;16.01;100.00
39823;BME280;25499;53.958;10.970;2022-10-17T19:50:30;102103.00;;;15.96;100.00
39823;BME280;25499;53.958;10.970;2022-10-17T19:52:55;102109.09;;;16.00;100.00
39823;BME280;25499;53.958;10.970;2022-10-17T19:55:21;102103.00;;;15.90;100.00
39823;BME280;25499;53.958;10.970;2022-10-17T19:57:46;102104.75;;;15.91;100.00
39823;BME280;25499;53.958;10.970;2022-10-17T20:00:12;102117.88;;;15.94;100.00
39823;BME280;25499;53.958;10.970;2022-10-17T20:02:38;102124.91;;;15.92;100.00
39823;BME280;25499;53.958;10.970;2022-10-17T20:05:04;102127.53;;;15.91;100.00
39823;BME280;25499;53.958;10.970;2022-10-17T20:07:39;102123.09;;;16.02;100.00
39823;BME280;25499;53.958;10.970;2022-10-17T20:10:05;102127.50;;;15.95;100.00
39823;BME280;25499;53.958;10.970;2022-10-17T20:12:31;102141.53;;;15.94;100.00
39823;BME280;25499;53.958;10.970;2022-10-17T20:14:58;102139.81;;;15.84;100.00
39823;BME280;25499;53.958;10.970;2022-10-17T20:17:24;102152.09;;;15.82;100.00
39823;BME280;25499;53.958;10.970;2022-10-17T20:19:50;102151.13;;;15.98;100.00
39823;BME280;25499;53.958;10.970;2022-10-17T20:22:16;102152.03;;;15.91;100.00
